sensor_id;sensor_type;location;lat;lon;timestamp;P1;durP1;ratioP1;P2;durP2;ratioP2
4694;SDS011;2361;49.540;8.390;2024-01-10T00:01:37;12.10;;;7.10;;
4694;SDS011;2361;49.540;8.390;2024-01-10T00:03:58;11.32;;;7.07;;
4694;SDS011;2361;49.540;8.390;2024-01-10T00:06:21;11.55;;;7.75;;
4694;SDS011;2361;49.540;8.390;2024-01-10T00:08:44;12.33;;;6.90;;
4694;SDS011;2361;49.540;8.390;2024-01-10T00:11:06;11.90;;;7.30;;
4694;SDS011;2361;49.540;8.390;2024-01-10T00:13:29;11.57;;;7.22;;
4694;SDS011;2361;49.540;8.390;2024-01-10T00:15:53;11.80;;;6.60;;
4694;SDS011;2361;49.540;8.390;2024-01-10T00:18:16;11.88;;;7.60;;
4694;SDS011;2361;49.540;8.390;2024-01-10T00:20:38;14.05;;;6.30;;
4694;SDS011;2361;49.540;8.390;2024-01-10T00:23:00;8.68;;;5.63;;
4694;SDS011;2361;49.540;8.390;2024-01-10T00:25:22;11.65;;;6.70;;
4694;SDS011;2361;49.540;8.390;2024-01-10T00:27:44;11.77;;;6.60;;
4694;SDS011;2361;49.540;8.390;2024-01-10T00:30:06;11.75;;;6.50;;
4694;SDS011;2361;49.540;8.390;2024-01-10T00:32:29;11.57;;;7.18;;
4694;SDS011;2361;49.540;8.390;2024-01-10T00:34:51;11.55;;;6.22;;
4694;SDS011;2361;49.540;8.390;2024-01-10T00:37:13;10.10;;;7.00;;
4694;SDS011;2361;49.540;8.390;2024-01-10T00:39:35;13.05;;;5.78;;
4694;SDS011;2361;49.540;8.390;2024-01-10T00:41:57;11.60;;;5.97;;
4694;SDS011;2361;49.540;8.390;2024-01-10T00:44:19;13.40;;;7.10;;
4694;SDS011;2361;49.540;8.390;2024-01-10T00:46:41;11.50;;;6.70;;
4694;SDS011;2361;49.540;8.390;2024-01-10T00:49:03;10.52;;;6.82;;
4694;SDS011;2361;49.540;8.390;2024-01-10T00:51:25;14.20;;;7.68;;
4694;SDS011;2361;49.540;8.390;2024-01-10T00:53:47;11.38;;;7.07;;
4694;SDS011;2361;49.540;8.390;2024-01-10T00:56:09;11.27;;;6.22;;
4694;SDS011;2361;49.540;8.390;2024-01-10T00:58:31;10.67;;;6.10;;
4694;SDS011;2361;49.540;8.390;2024-01-10T01:00:53;10.98;;;6.18;;
4694;SDS011;2361;49.540;8.390;2024-01-10T01:03:15;11.52;;;6.68;;
4694;SDS011;2361;49.540;8.390;2024-01-10T01:05:37;10.05;;;6.60;;
4694;SDS011;2361;49.540;8.390;2024-01-10T01:07:59;12.73;;;6.80;;
4694;SDS011;2361;49.540;8.390;2024-01-10T01:10:21;13.75;;;7.20;;
4694;SDS011;2361;49.540;8.390;2024-01-10T01:12:43;12.70;;;7.35;;
4694;SDS011;2361;49.540;8.390;2024-01-10T01:15:05;13.57;;;7.28;;
4694;SDS011;2361;49.540;8.390;2024-01-10T01:17:28;13.27;;;7.18;;
4694;SDS011;2361;49.540;8.390;2024-01-10T01:19:50;12.02;;;7.10;;
4694;SDS011;2361;49.540;8.390;2024-01-10T01:22:12;10.20;;;6.28;;
4694;SDS011;2361;49.540;8.390;2024-01-10T01:24:34;12.57;;;7.35;;
4694;SDS011;2361;49.540;8.390;2024-01-10T01:26:56;9.23;;;6.22;;
4694;SDS011;2361;49.540;8.390;2024-01-10T01:29:18;12.07;;;6.60;;
4694;SDS011;2361;49.540;8.390;2024-01-10T01:31:41;9.90;;;6.07;;
4694;SDS011;2361;49.540;8.390;2024-01-10T01:34:03;11.20;;;5.78;;
4694;SDS011;2361;49.540;8.390;2024-01-10T01:36:26;10.65;;;6.10;;
4694;SDS011;2361;49.540;8.390;2024-01-10T01:38:48;11.13;;;6.70;;
4694;SDS011;2361;49.540;8.390;2024-01-10T01:41:09;13.00;;;7.00;;
4694;SDS011;2361;49.540;8.390;2024-01-10T01:43:32;9.60;;;6.22;;
4694;SDS011;2361;49.540;8.390;2024-01-10T01:45:55;11.73;;;6.70;;
4694;SDS011;2361;49.540;8.390;2024-01-10T01:48:18;12.55;;;7.40;;
4694;SDS011;2361;49.540;8.390;2024-01-10T01:50:41;14.80;;;7.00;;
4694;SDS011;2361;49.540;8.390;2024-01-10T01:53:03;13.68;;;7.60;;
4694;SDS011;2361;49.540;8.390;2024-01-10T01:55:25;12.90;;;7.27;;
4694;SDS011;2361;49.540;8.390;2024-01-10T01:57:47;14.68;;;7.30;;
4694;SDS011;2361;49.540;8.390;2024-01-10T02:00:09;14.45;;;7.95;;
4694;SDS011;2361;49.540;8.390;2024-01-10T02:02:31;11.88;;;7.13;;
4694;SDS011;2361;49.540;8.390;2024-01-10T02:04:56;13.57;;;7.38;;
4694;SDS011;2361;49.540;8.390;2024-01-10T02:07:19;14.05;;;7.07;;
4694;SDS011;2361;49.540;8.390;2024-01-10T02:09:40;12.30;;;6.70;;
4694;SDS011;2361;49.540;8.390;2024-01-10T02:12:02;13.73;;;8.40;;
4694;SDS011;2361;49.540;8.390;2024-01-10T02:14:25;14.80;;;8.70;;
4694;SDS011;2361;49.540;8.390;2024-01-10T02:16:47;13.73;;;7.82;;
4694;SDS011;2361;49.540;8.390;2024-01-10T02:19:19;15.45;;;8.20;;
4694;SDS011;2361;49.540;8.390;2024-01-10T02:21:43;12.30;;;6.82;;
4694;SDS011;2361;49.540;8.390;2024-01-10T02:24:05;12.52;;;7.15;;
4694;SDS011;2361;49.540;8.390;2024-01-10T02:26:27;14.07;;;7.75;;
4694;SDS011;2361;49.540;8.390;2024-01-10T02:28:49;13.75;;;7.18;;
4694;SDS011;2361;49.540;8.390;2024-01-10T02:31:11;13.88;;;7.75;;
4694;SDS011;2361;49.540;8.390;2024-01-10T02:33:34;16.15;;;8.23;;
4694;SDS011;2361;49.540;8.390;2024-01-10T02:35:56;15.15;;;7.88;;
4694;SDS011;2361;49.540;8.390;2024-01-10T02:38:17;14.13;;;7.43;;
4694;SDS011;2361;49.540;8.390;2024-01-10T02:40:42;14.38;;;7.85;;
4694;SDS011;2361;49.540;8.390;2024-01-10T02:43:04;14.50;;;7.53;;
4694;SDS011;2361;49.540;8.390;2024-01-10T02:45:28;12.98;;;7.43;;
4694;SDS011;2361;49.540;8.390;2024-01-10T02:47:50;13.55;;;7.07;;
4694;SDS011;2361;49.540;8.390;2024-01-10T02:50:12;13.30;;;7.60;;
4694;SDS011;2361;49.540;8.390;2024-01-10T02:52:34;14.65;;;7.80;;
4694;SDS011;2361;49.540;8.390;2024-01-10T02:54:56;14.07;;;7.13;;
4694;SDS011;2361;49.540;8.390;2024-01-10T02:57:18;13.40;;;7.63;;
4694;SDS011;2361;49.540;8.390;2024-01-10T02:59:40;11.60;;;6.68;;
4694;SDS011;2361;49.540;8.390;2024-01-10T03:02:02;14.15;;;7.65;;
4694;SDS011;2361;49.540;8.390;2024-01-10T03:04:24;14.70;;;8.32;;
4694;SDS011;2361;49.540;8.390;2024-01-10T03:06:46;12.27;;;6.85;;
4694;SDS011;2361;49.540;8.390;2024-01-10T03:09:08;13.32;;;7.70;;
4694;SDS011;2361;49.540;8.390;2024-01-10T03:11:30;15.20;;;8.95;;
4694;SDS011;2361;49.540;8.390;2024-01-10T03:14:00;16.42;;;8.80;;
4694;SDS011;2361;49.540;8.390;2024-01-10T03:16:25;15.63;;;9.33;;
4694;SDS011;2361;49.540;8.390;2024-01-10T03:18:47;14.85;;;8.90;;
4694;SDS011;2361;49.540;8.390;2024-01-10T03:21:09;14.73;;;9.20;;
4694;SDS011;2361;49.540;8.390;2024-01-10T03:23:31;14.93;;;8.50;;
4694;SDS011;2361;49.540;8.390;2024-01-10T03:25:53;15.82;;;9.48;;
4694;SDS011;2361;49.540;8.390;2024-01-10T03:28:15;15.23;;;10.02;;
4694;SDS011;2361;49.540;8.390;2024-01-10T03:30:38;16.20;;;9.38;;
4694;SDS011;2361;49.540;8.390;2024-01-10T03:33:00;16.70;;;8.53;;
4694;SDS011;2361;49.540;8.390;2024-01-10T03:35:22;13.40;;;7.90;;
4694;SDS011;2361;49.540;8.390;2024-01-10T03:37:44;17.15;;;9.23;;
4694;SDS011;2361;49.540;8.390;2024-01-10T03:40:07;14.05;;;8.18;;
4694;SDS011;2361;49.540;8.390;2024-01-10T03:42:29;15.43;;;7.65;;
4694;SDS011;2361;49.540;8.390;2024-01-10T03:44:51;15.25;;;7.82;;
4694;SDS011;2361;49.540;8.390;2024-01-10T03:47:13;15.27;;;7.60;;
4694;SDS011;2361;49.540;8.390;2024-01-10T03:49:35;15.98;;;8.27;;
4694;SDS011;2361;49.540;8.390;2024-01-10T03:51:57;16.83;;;8.67;;
4694;SDS011;2361;49.540;8.390;2024-01-10T03:54:19;15.00;;;8.80;;
4694;SDS011;2361;49.540;8.390;2024-01-10T03:56:41;18.13;;;9.40;;
4694;SDS011;2361;49.540;8.390;2024-01-10T03:59:03;15.52;;;9.10;;
4694;SDS011;2361;49.540;8.390;2024-01-10T04:01:25;15.75;;;8.68;;
4694;SDS011;2361;49.540;8.390;2024-01-10T04:03:47;15.82;;;8.95;;
4694;SDS011;2361;49.540;8.390;2024-01-10T04:06:09;16.92;;;9.30;;
4694;SDS011;2361;49.540;8.390;2024-01-10T04:08:31;17.40;;;9.27;;
4694;SDS011;2361;49.540;8.390;2024-01-10T04:10:53;16.50;;;9.13;;
4694;SDS011;2361;49.540;8.390;2024-01-10T04:13:15;16.83;;;9.00;;
4694;SDS011;2361;49.540;8.390;2024-01-10T04:15:37;15.45;;;9.25;;
4694;SDS011;2361;49.540;8.390;2024-01-10T04:17:59;19.17;;;9.90;;
4694;SDS011;2361;49.540;8.390;2024-01-10T04:20:21;18.55;;;9.20;;
4694;SDS011;2361;49.540;8.390;2024-01-10T04:22:43;17.40;;;9.82;;
4694;SDS011;2361;49.540;8.390;2024-01-10T04:25:05;16.02;;;8.73;;
4694;SDS011;2361;49.540;8.390;2024-01-10T04:27:28;13.68;;;7.10;;
4694;SDS011;2361;49.540;8.390;2024-01-10T04:29:50;18.63;;;9.65;;
4694;SDS011;2361;49.540;8.390;2024-01-10T04:32:12;16.50;;;7.53;;
4694;SDS011;2361;49.540;8.390;2024-01-10T04:34:34;19.25;;;10.07;;
4694;SDS011;2361;49.540;8.390;2024-01-10T04:36:56;16.50;;;9.10;;
4694;SDS011;2361;49.540;8.390;2024-01-10T04:39:18;19.65;;;10.13;;
4694;SDS011;2361;49.540;8.390;2024-01-10T04:41:40;13.75;;;7.75;;
4694;SDS011;2361;49.540;8.390;2024-01-10T04:44:02;17.08;;;8.98;;
4694;SDS011;2361;49.540;8.390;2024-01-10T04:46:24;16.70;;;8.90;;
4694;SDS011;2361;49.540;8.390;2024-01-10T04:48:46;17.02;;;9.50;;
4694;SDS011;2361;49.540;8.390;2024-01-10T04:51:08;14.85;;;8.88;;
4694;SDS011;2361;49.540;8.390;2024-01-10T04:53:30;18.70;;;8.80;;
4694;SDS011;2361;49.540;8.390;2024-01-10T04:55:52;16.40;;;9.70;;
4694;SDS011;2361;49.540;8.390;2024-01-10T04:58:14;20.50;;;10.05;;
4694;SDS011;2361;49.540;8.390;2024-01-10T05:00:36;20.15;;;10.70;;
4694;SDS011;2361;49.540;8.390;2024-01-10T05:02:58;17.98;;;9.70;;
4694;SDS011;2361;49.540;8.390;2024-01-10T05:05:20;16.73;;;9.05;;
4694;SDS011;2361;49.540;8.390;2024-01-10T05:07:45;19.02;;;9.70;;
4694;SDS011;2361;49.540;8.390;2024-01-10T05:10:07;17.77;;;9.82;;
4694;SDS011;2361;49.540;8.390;2024-01-10T05:12:29;19.35;;;9.20;;
4694;SDS011;2361;49.540;8.390;2024-01-10T05:14:51;17.52;;;9.77;;
4694;SDS011;2361;49.540;8.390;2024-01-10T05:17:13;17.40;;;9.48;;
4694;SDS011;2361;49.540;8.390;2024-01-10T05:19:35;16.48;;;9.90;;
4694;SDS011;2361;49.540;8.390;2024-01-10T05:21:57;18.47;;;9.80;;
4694;SDS011;2361;49.540;8.390;2024-01-10T05:24:23;20.90;;;11.13;;
4694;SDS011;2361;49.540;8.390;2024-01-10T05:26:45;19.50;;;10.60;;
4694;SDS011;2361;49.540;8.390;2024-01-10T05:29:07;16.20;;;8.98;;
4694;SDS011;2361;49.540;8.390;2024-01-10T05:31:29;22.25;;;10.50;;
4694;SDS011;2361;49.540;8.390;2024-01-10T05:33:51;18.20;;;10.35;;
4694;SDS011;2361;49.540;8.390;2024-01-10T05:36:14;20.02;;;10.05;;
4694;SDS011;2361;49.540;8.390;2024-01-10T05:38:36;17.70;;;8.95;;
4694;SDS011;2361;49.540;8.390;2024-01-10T05:40:58;19.53;;;9.83;;
4694;SDS011;2361;49.540;8.390;2024-01-10T05:43:20;17.30;;;9.63;;
4694;SDS011;2361;49.540;8.390;2024-01-10T05:45:43;17.27;;;9.48;;
4694;SDS011;2361;49.540;8.390;2024-01-10T05:48:05;17.10;;;8.90;;
4694;SDS011;2361;49.540;8.390;2024-01-10T05:50:27;16.10;;;8.52;;
4694;SDS011;2361;49.540;8.390;2024-01-10T05:52:50;16.55;;;8.70;;
4694;SDS011;2361;49.540;8.390;2024-01-10T05:55:12;17.63;;;8.80;;
4694;SDS011;2361;49.540;8.390;2024-01-10T05:57:36;17.45;;;10.00;;
4694;SDS011;2361;49.540;8.390;2024-01-10T05:59:58;15.30;;;8.20;;
4694;SDS011;2361;49.540;8.390;2024-01-10T06:02:20;18.15;;;9.50;;
4694;SDS011;2361;49.540;8.390;2024-01-10T06:04:42;19.48;;;9.90;;
4694;SDS011;2361;49.540;8.390;2024-01-10T06:07:04;18.65;;;9.05;;
4694;SDS011;2361;49.540;8.390;2024-01-10T06:09:26;17.02;;;9.23;;
4694;SDS011;2361;49.540;8.390;2024-01-10T06:11:48;16.08;;;8.35;;
4694;SDS011;2361;49.540;8.390;2024-01-10T06:14:10;18.50;;;9.77;;
4694;SDS011;2361;49.540;8.390;2024-01-10T06:16:32;19.65;;;9.13;;
4694;SDS011;2361;49.540;8.390;2024-01-10T06:18:54;16.60;;;8.75;;
4694;SDS011;2361;49.540;8.390;2024-01-10T06:21:16;20.45;;;9.23;;
4694;SDS011;2361;49.540;8.390;2024-01-10T06:23:38;17.17;;;9.45;;
4694;SDS011;2361;49.540;8.390;2024-01-10T06:26:01;15.68;;;9.15;;
4694;SDS011;2361;49.540;8.390;2024-01-10T06:28:23;19.03;;;10.50;;
4694;SDS011;2361;49.540;8.390;2024-01-10T06:30:45;17.98;;;9.25;;
4694;SDS011;2361;49.540;8.390;2024-01-10T06:33:07;19.05;;;10.55;;
4694;SDS011;2361;49.540;8.390;2024-01-10T06:35:28;20.67;;;11.13;;
4694;SDS011;2361;49.540;8.390;2024-01-10T06:37:51;17.02;;;9.13;;
4694;SDS011;2361;49.540;8.390;2024-01-10T06:40:13;21.17;;;11.40;;
4694;SDS011;2361;49.540;8.390;2024-01-10T06:42:35;17.17;;;7.68;;
4694;SDS011;2361;49.540;8.390;2024-01-10T06:44:58;18.77;;;9.18;;
4694;SDS011;2361;49.540;8.390;2024-01-10T06:47:20;19.60;;;8.80;;
4694;SDS011;2361;49.540;8.390;2024-01-10T06:49:43;18.27;;;9.80;;
4694;SDS011;2361;49.540;8.390;2024-01-10T06:52:05;19.35;;;10.45;;
4694;SDS011;2361;49.540;8.390;2024-01-10T06:54:29;19.92;;;9.70;;
4694;SDS011;2361;49.540;8.390;2024-01-10T06:56:51;16.73;;;8.20;;
4694;SDS011;2361;49.540;8.390;2024-01-10T06:59:12;17.08;;;8.02;;
4694;SDS011;2361;49.540;8.390;2024-01-10T07:01:34;19.13;;;10.90;;
4694;SDS011;2361;49.540;8.390;2024-01-10T07:03:56;21.95;;;8.95;;
4694;SDS011;2361;49.540;8.390;2024-01-10T07:06:18;16.55;;;8.25;;
4694;SDS011;2361;49.540;8.390;2024-01-10T07:08:41;16.13;;;7.70;;
4694;SDS011;2361;49.540;8.390;2024-01-10T07:11:03;19.27;;;9.82;;
4694;SDS011;2361;49.540;8.390;2024-01-10T07:13:25;20.48;;;9.80;;
4694;SDS011;2361;49.540;8.390;2024-01-10T07:15:47;18.00;;;9.60;;
4694;SDS011;2361;49.540;8.390;2024-01-10T07:18:11;21.88;;;9.30;;
4694;SDS011;2361;49.540;8.390;2024-01-10T07:20:33;16.30;;;9.10;;
4694;SDS011;2361;49.540;8.390;2024-01-10T07:22:56;19.10;;;8.53;;
4694;SDS011;2361;49.540;8.390;2024-01-10T07:25:18;18.67;;;9.82;;
4694;SDS011;2361;49.540;8.390;2024-01-10T07:27:40;17.75;;;8.95;;
4694;SDS011;2361;49.540;8.390;2024-01-10T07:30:05;15.35;;;7.70;;
4694;SDS011;2361;49.540;8.390;2024-01-10T07:32:34;18.27;;;9.63;;
4694;SDS011;2361;49.540;8.390;2024-01-10T07:34:57;17.75;;;9.90;;
4694;SDS011;2361;49.540;8.390;2024-01-10T07:37:19;20.75;;;9.60;;
4694;SDS011;2361;49.540;8.390;2024-01-10T07:39:42;18.33;;;9.35;;
4694;SDS011;2361;49.540;8.390;2024-01-10T07:42:04;17.42;;;8.73;;
4694;SDS011;2361;49.540;8.390;2024-01-10T07:44:26;19.02;;;8.75;;
4694;SDS011;2361;49.540;8.390;2024-01-10T07:46:48;17.07;;;8.90;;
4694;SDS011;2361;49.540;8.390;2024-01-10T07:49:12;18.83;;;9.27;;
4694;SDS011;2361;49.540;8.390;2024-01-10T07:51:34;21.30;;;10.35;;
4694;SDS011;2361;49.540;8.390;2024-01-10T07:53:56;20.85;;;10.63;;
4694;SDS011;2361;49.540;8.390;2024-01-10T07:56:20;19.38;;;10.68;;
4694;SDS011;2361;49.540;8.390;2024-01-10T07:58:42;18.90;;;9.93;;
4694;SDS011;2361;49.540;8.390;2024-01-10T08:01:04;19.02;;;9.68;;
4694;SDS011;2361;49.540;8.390;2024-01-10T08:03:27;18.90;;;10.18;;
4694;SDS011;2361;49.540;8.390;2024-01-10T08:05:49;18.73;;;9.77;;
4694;SDS011;2361;49.540;8.390;2024-01-10T08:08:11;18.95;;;9.48;;
4694;SDS011;2361;49.540;8.390;2024-01-10T08:10:34;19.05;;;10.10;;
4694;SDS011;2361;49.540;8.390;2024-01-10T08:12:59;18.65;;;9.68;;
4694;SDS011;2361;49.540;8.390;2024-01-10T08:15:21;19.38;;;10.10;;
4694;SDS011;2361;49.540;8.390;2024-01-10T08:17:44;19.75;;;9.90;;
4694;SDS011;2361;49.540;8.390;2024-01-10T08:20:06;16.52;;;9.90;;
4694;SDS011;2361;49.540;8.390;2024-01-10T08:22:30;16.73;;;9.33;;
4694;SDS011;2361;49.540;8.390;2024-01-10T08:24:52;17.40;;;8.85;;
4694;SDS011;2361;49.540;8.390;2024-01-10T08:27:14;19.52;;;10.38;;
4694;SDS011;2361;49.540;8.390;2024-01-10T08:29:38;19.55;;;10.02;;
4694;SDS011;2361;49.540;8.390;2024-01-10T08:32:00;16.30;;;9.20;;
4694;SDS011;2361;49.540;8.390;2024-01-10T08:34:22;16.67;;;9.32;;
4694;SDS011;2361;49.540;8.390;2024-01-10T08:36:48;21.85;;;10.60;;
4694;SDS011;2361;49.540;8.390;2024-01-10T08:39:13;16.80;;;9.15;;
4694;SDS011;2361;49.540;8.390;2024-01-10T08:41:35;17.40;;;8.37;;
4694;SDS011;2361;49.540;8.390;2024-01-10T08:43:59;20.40;;;9.98;;
4694;SDS011;2361;49.540;8.390;2024-01-10T08:46:21;15.77;;;9.10;;
4694;SDS011;2361;49.540;8.390;2024-01-10T08:48:43;16.52;;;9.32;;
4694;SDS011;2361;49.540;8.390;2024-01-10T08:51:05;18.02;;;9.18;;
4694;SDS011;2361;49.540;8.390;2024-01-10T08:53:27;18.23;;;8.75;;
4694;SDS011;2361;49.540;8.390;2024-01-10T08:55:52;17.42;;;9.65;;
4694;SDS011;2361;49.540;8.390;2024-01-10T08:58:14;17.88;;;10.10;;
4694;SDS011;2361;49.540;8.390;2024-01-10T09:00:36;18.00;;;9.20;;
4694;SDS011;2361;49.540;8.390;2024-01-10T09:02:58;20.40;;;10.80;;
4694;SDS011;2361;49.540;8.390;2024-01-10T09:05:20;18.02;;;9.57;;
4694;SDS011;2361;49.540;8.390;2024-01-10T09:07:42;17.92;;;9.30;;
4694;SDS011;2361;49.540;8.390;2024-01-10T09:10:04;19.92;;;10.23;;
4694;SDS011;2361;49.540;8.390;2024-01-10T09:12:28;19.88;;;10.00;;
4694;SDS011;2361;49.540;8.390;2024-01-10T09:14:51;19.45;;;10.20;;
4694;SDS011;2361;49.540;8.390;2024-01-10T09:17:13;18.90;;;10.13;;
4694;SDS011;2361;49.540;8.390;2024-01-10T09:19:35;18.42;;;10.07;;
4694;SDS011;2361;49.540;8.390;2024-01-10T09:21:57;16.63;;;9.10;;
4694;SDS011;2361;49.540;8.390;2024-01-10T09:24:19;16.58;;;9.88;;
4694;SDS011;2361;49.540;8.390;2024-01-10T09:26:49;16.33;;;9.90;;
4694;SDS011;2361;49.540;8.390;2024-01-10T09:29:11;20.33;;;10.27;;
4694;SDS011;2361;49.540;8.390;2024-01-10T09:31:33;16.80;;;8.35;;
4694;SDS011;2361;49.540;8.390;2024-01-10T09:33:55;18.20;;;9.73;;
4694;SDS011;2361;49.540;8.390;2024-01-10T09:36:17;16.92;;;9.05;;
4694;SDS011;2361;49.540;8.390;2024-01-10T09:38:39;17.10;;;9.25;;
4694;SDS011;2361;49.540;8.390;2024-01-10T09:41:01;16.97;;;9.37;;
4694;SDS011;2361;49.540;8.390;2024-01-10T09:43:25;17.38;;;8.73;;
4694;SDS011;2361;49.540;8.390;2024-01-10T09:45:47;15.77;;;8.60;;
4694;SDS011;2361;49.540;8.390;2024-01-10T09:48:11;17.98;;;9.00;;
4694;SDS011;2361;49.540;8.390;2024-01-10T09:50:34;11.45;;;5.20;;
4694;SDS011;2361;49.540;8.390;2024-01-10T09:53:05;15.93;;;8.30;;
4694;SDS011;2361;49.540;8.390;2024-01-10T09:55:29;17.15;;;8.80;;
4694;SDS011;2361;49.540;8.390;2024-01-10T09:57:56;11.68;;;5.45;;
4694;SDS011;2361;49.540;8.390;2024-01-10T10:00:18;15.68;;;8.73;;
4694;SDS011;2361;49.540;8.390;2024-01-10T10:02:40;13.30;;;6.60;;
4694;SDS011;2361;49.540;8.390;2024-01-10T10:05:04;3.72;;;2.38;;
4694;SDS011;2361;49.540;8.390;2024-01-10T10:10:06;12.98;;;5.55;;
4694;SDS011;2361;49.540;8.390;2024-01-10T10:12:48;12.35;;;6.32;;
4694;SDS011;2361;49.540;8.390;2024-01-10T10:15:19;16.67;;;6.70;;
4694;SDS011;2361;49.540;8.390;2024-01-10T10:17:45;15.20;;;5.78;;
4694;SDS011;2361;49.540;8.390;2024-01-10T10:20:09;12.70;;;6.72;;
4694;SDS011;2361;49.540;8.390;2024-01-10T10:22:32;12.93;;;6.90;;
4694;SDS011;2361;49.540;8.390;2024-01-10T10:24:54;14.77;;;7.20;;
4694;SDS011;2361;49.540;8.390;2024-01-10T10:27:16;11.00;;;5.85;;
4694;SDS011;2361;49.540;8.390;2024-01-10T10:29:38;10.15;;;5.85;;
4694;SDS011;2361;49.540;8.390;2024-01-10T10:32:00;13.73;;;6.75;;
4694;SDS011;2361;49.540;8.390;2024-01-10T10:34:23;12.30;;;6.55;;
4694;SDS011;2361;49.540;8.390;2024-01-10T10:36:53;6.90;;;3.60;;
4694;SDS011;2361;49.540;8.390;2024-01-10T10:39:18;12.77;;;7.00;;
4694;SDS011;2361;49.540;8.390;2024-01-10T10:41:41;13.35;;;7.15;;
4694;SDS011;2361;49.540;8.390;2024-01-10T10:44:04;13.65;;;7.03;;
4694;SDS011;2361;49.540;8.390;2024-01-10T10:46:31;10.55;;;5.60;;
4694;SDS011;2361;49.540;8.390;2024-01-10T10:48:56;15.05;;;6.82;;
4694;SDS011;2361;49.540;8.390;2024-01-10T10:51:32;13.60;;;7.10;;
4694;SDS011;2361;49.540;8.390;2024-01-10T10:53:58;11.18;;;6.40;;
4694;SDS011;2361;49.540;8.390;2024-01-10T10:56:21;8.07;;;4.40;;
4694;SDS011;2361;49.540;8.390;2024-01-10T10:58:45;13.85;;;7.10;;
4694;SDS011;2361;49.540;8.390;2024-01-10T11:01:08;12.82;;;5.70;;
4694;SDS011;2361;49.540;8.390;2024-01-10T11:03:36;11.50;;;6.70;;
4694;SDS011;2361;49.540;8.390;2024-01-10T11:06:02;13.65;;;6.80;;
4694;SDS011;2361;49.540;8.390;2024-01-10T11:08:25;13.05;;;7.50;;
4694;SDS011;2361;49.540;8.390;2024-01-10T11:10:49;13.57;;;7.10;;
4694;SDS011;2361;49.540;8.390;2024-01-10T11:16:40;11.05;;;6.18;;
4694;SDS011;2361;49.540;8.390;2024-01-10T11:19:31;13.07;;;6.20;;
4694;SDS011;2361;49.540;8.390;2024-01-10T11:25:21;15.38;;;7.30;;
4694;SDS011;2361;49.540;8.390;2024-01-10T11:27:43;12.32;;;5.18;;
4694;SDS011;2361;49.540;8.390;2024-01-10T11:30:05;14.23;;;7.60;;
4694;SDS011;2361;49.540;8.390;2024-01-10T11:32:28;14.70;;;7.82;;
4694;SDS011;2361;49.540;8.390;2024-01-10T11:34:54;10.07;;;4.20;;
4694;SDS011;2361;49.540;8.390;2024-01-10T11:37:18;14.40;;;7.07;;
4694;SDS011;2361;49.540;8.390;2024-01-10T11:39:43;13.60;;;7.10;;
4694;SDS011;2361;49.540;8.390;2024-01-10T11:42:07;12.02;;;5.63;;
4694;SDS011;2361;49.540;8.390;2024-01-10T11:44:30;13.68;;;6.80;;
4694;SDS011;2361;49.540;8.390;2024-01-10T11:46:53;13.50;;;7.10;;
4694;SDS011;2361;49.540;8.390;2024-01-10T11:49:17;11.18;;;6.32;;
4694;SDS011;2361;49.540;8.390;2024-01-10T11:51:44;14.75;;;8.10;;
4694;SDS011;2361;49.540;8.390;2024-01-10T11:54:10;13.27;;;6.35;;
4694;SDS011;2361;49.540;8.390;2024-01-10T11:56:37;12.60;;;6.25;;
4694;SDS011;2361;49.540;8.390;2024-01-10T11:59:08;7.83;;;3.73;;
4694;SDS011;2361;49.540;8.390;2024-01-10T12:01:37;13.00;;;6.18;;
4694;SDS011;2361;49.540;8.390;2024-01-10T12:04:01;13.73;;;6.17;;
4694;SDS011;2361;49.540;8.390;2024-01-10T12:06:40;13.55;;;6.55;;
4694;SDS011;2361;49.540;8.390;2024-01-10T12:09:03;14.00;;;7.30;;
4694;SDS011;2361;49.540;8.390;2024-01-10T12:11:33;14.43;;;7.50;;
4694;SDS011;2361;49.540;8.390;2024-01-10T12:14:00;12.80;;;7.10;;
4694;SDS011;2361;49.540;8.390;2024-01-10T12:16:25;14.95;;;7.30;;
4694;SDS011;2361;49.540;8.390;2024-01-10T12:18:47;13.43;;;8.10;;
4694;SDS011;2361;49.540;8.390;2024-01-10T12:21:10;13.90;;;6.53;;
4694;SDS011;2361;49.540;8.390;2024-01-10T12:23:33;14.80;;;7.70;;
4694;SDS011;2361;49.540;8.390;2024-01-10T12:26:02;14.73;;;8.20;;
4694;SDS011;2361;49.540;8.390;2024-01-10T12:28:29;14.05;;;7.60;;
4694;SDS011;2361;49.540;8.390;2024-01-10T12:30:51;13.30;;;6.82;;
4694;SDS011;2361;49.540;8.390;2024-01-10T12:33:13;15.15;;;7.30;;
4694;SDS011;2361;49.540;8.390;2024-01-10T12:35:35;16.25;;;7.80;;
4694;SDS011;2361;49.540;8.390;2024-01-10T12:37:58;14.10;;;7.03;;
4694;SDS011;2361;49.540;8.390;2024-01-10T12:40:21;14.85;;;7.30;;
4694;SDS011;2361;49.540;8.390;2024-01-10T12:42:43;14.38;;;8.15;;
4694;SDS011;2361;49.540;8.390;2024-01-10T12:45:05;13.23;;;7.60;;
4694;SDS011;2361;49.540;8.390;2024-01-10T12:47:41;14.73;;;7.20;;
4694;SDS011;2361;49.540;8.390;2024-01-10T12:50:03;13.40;;;7.47;;
4694;SDS011;2361;49.540;8.390;2024-01-10T12:52:26;15.13;;;5.80;;
4694;SDS011;2361;49.540;8.390;2024-01-10T12:54:48;14.50;;;7.80;;
4694;SDS011;2361;49.540;8.390;2024-01-10T12:57:12;11.80;;;6.70;;
4694;SDS011;2361;49.540;8.390;2024-01-10T12:59:33;16.27;;;7.70;;
4694;SDS011;2361;49.540;8.390;2024-01-10T13:01:55;14.15;;;7.55;;
4694;SDS011;2361;49.540;8.390;2024-01-10T13:04:18;13.70;;;7.40;;
4694;SDS011;2361;49.540;8.390;2024-01-10T13:06:40;15.77;;;6.82;;
4694;SDS011;2361;49.540;8.390;2024-01-10T13:09:02;14.02;;;7.35;;
4694;SDS011;2361;49.540;8.390;2024-01-10T13:11:25;15.02;;;8.18;;
4694;SDS011;2361;49.540;8.390;2024-01-10T13:13:47;14.13;;;7.55;;
4694;SDS011;2361;49.540;8.390;2024-01-10T13:16:09;16.38;;;7.63;;
4694;SDS011;2361;49.540;8.390;2024-01-10T13:18:32;14.10;;;7.32;;
4694;SDS011;2361;49.540;8.390;2024-01-10T13:20:55;14.45;;;8.10;;
4694;SDS011;2361;49.540;8.390;2024-01-10T13:23:17;16.40;;;8.57;;
4694;SDS011;2361;49.540;8.390;2024-01-10T13:25:40;15.10;;;8.00;;
4694;SDS011;2361;49.540;8.390;2024-01-10T13:28:03;14.95;;;8.05;;
4694;SDS011;2361;49.540;8.390;2024-01-10T13:30:28;14.10;;;7.30;;
4694;SDS011;2361;49.540;8.390;2024-01-10T13:32:50;14.65;;;8.10;;
4694;SDS011;2361;49.540;8.390;2024-01-10T13:35:15;15.18;;;8.90;;
4694;SDS011;2361;49.540;8.390;2024-01-10T13:37:37;10.63;;;6.23;;
4694;SDS011;2361;49.540;8.390;2024-01-10T13:39:59;14.80;;;9.20;;
4694;SDS011;2361;49.540;8.390;2024-01-10T13:42:23;16.70;;;8.50;;
4694;SDS011;2361;49.540;8.390;2024-01-10T13:44:45;15.43;;;7.90;;
4694;SDS011;2361;49.540;8.390;2024-01-10T13:47:07;13.20;;;7.20;;
4694;SDS011;2361;49.540;8.390;2024-01-10T13:49:29;14.60;;;8.30;;
4694;SDS011;2361;49.540;8.390;2024-01-10T13:51:52;16.75;;;8.13;;
4694;SDS011;2361;49.540;8.390;2024-01-10T13:54:13;14.10;;;8.30;;
4694;SDS011;2361;49.540;8.390;2024-01-10T13:56:35;14.27;;;8.02;;
4694;SDS011;2361;49.540;8.390;2024-01-10T13:59:00;14.10;;;7.88;;
4694;SDS011;2361;49.540;8.390;2024-01-10T14:01:22;16.60;;;8.88;;
4694;SDS011;2361;49.540;8.390;2024-01-10T14:03:44;15.70;;;7.38;;
4694;SDS011;2361;49.540;8.390;2024-01-10T14:06:06;12.77;;;7.38;;
4694;SDS011;2361;49.540;8.390;2024-01-10T14:08:28;16.75;;;8.07;;
4694;SDS011;2361;49.540;8.390;2024-01-10T14:10:51;14.30;;;8.15;;
4694;SDS011;2361;49.540;8.390;2024-01-10T14:13:13;11.85;;;7.20;;
4694;SDS011;2361;49.540;8.390;2024-01-10T14:15:35;13.07;;;7.35;;
4694;SDS011;2361;49.540;8.390;2024-01-10T14:17:57;14.00;;;7.22;;
4694;SDS011;2361;49.540;8.390;2024-01-10T14:20:19;16.52;;;8.20;;
4694;SDS011;2361;49.540;8.390;2024-01-10T14:22:42;15.15;;;7.70;;
4694;SDS011;2361;49.540;8.390;2024-01-10T14:25:04;13.52;;;7.30;;
4694;SDS011;2361;49.540;8.390;2024-01-10T14:27:27;14.80;;;7.80;;
4694;SDS011;2361;49.540;8.390;2024-01-10T14:29:49;15.23;;;8.57;;
4694;SDS011;2361;49.540;8.390;2024-01-10T14:32:11;13.35;;;7.72;;
4694;SDS011;2361;49.540;8.390;2024-01-10T14:34:39;15.82;;;8.43;;
4694;SDS011;2361;49.540;8.390;2024-01-10T14:37:02;17.25;;;8.70;;
4694;SDS011;2361;49.540;8.390;2024-01-10T14:39:24;17.73;;;8.55;;
4694;SDS011;2361;49.540;8.390;2024-01-10T14:41:46;15.50;;;8.02;;
4694;SDS011;2361;49.540;8.390;2024-01-10T14:44:08;14.25;;;7.00;;